sensor_id;sensor_type;location;lat;lon;timestamp;pressure;altitude;pressure_sealevel;temperature;humidity
15646;BME280;7922;43.622;1.476;2023-02-12T00:00:20;101701.53;;;2.48;83.08
15646;BME280;7922;43.622;1.476;2023-02-12T00:02:45;101677.53;;;2.23;83.04
15646;BME280;7922;43.622;1.476;2023-02-12T00:05:10;101705.84;;;2.46;82.85
15646;BME280;7922;43.622;1.476;2023-02-12T00:07:36;101561.25;;;1.56;82.49
15646;BME280;7922;43.622;1.476;2023-02-12T00:10:01;101541.00;;;1.42;82.85
15646;BME280;7922;43.622;1.476;2023-02-12T00:12:26;101669.44;;;2.09;83.09
15646;BME280;7922;43.622;1.476;2023-02-12T00:14:52;101766.44;;;2.69;82.57
15646;BME280;7922;43.622;1.476;2023-02-12T00:17:17;101695.78;;;2.20;82.43
15646;BME280;7922;43.622;1.476;2023-02-12T00:19:42;101660.56;;;2.01;82.67
15646;BME280;7922;43.622;1.476;2023-02-12T00:22:07;101718.41;;;2.18;82.67
15646;BME280;7922;43.622;1.476;2023-02-12T00:24:33;101710.59;;;2.20;82.43
15646;BME280;7922;43.622;1.476;2023-02-12T00:26:58;101666.38;;;1.86;82.91
15646;BME280;7922;43.622;1.476;2023-02-12T00:29:23;101575.75;;;1.40;82.22
15646;BME280;7922;43.622;1.476;2023-02-12T00:31:48;101574.81;;;1.36;82.36
15646;BME280;7922;43.622;1.476;2023-02-12T00:34:14;101699.72;;;2.00;82.68
15646;BME280;7922;43.622;1.476;2023-02-12T00:36:39;101580.84;;;1.34;82.50
15646;BME280;7922;43.622;1.476;2023-02-12T00:39:04;101694.53;;;2.01;83.06
15646;BME280;7922;43.622;1.476;2023-02-12T00:41:29;101701.44;;;1.98;82.70
15646;BME280;7922;43.622;1.476;2023-02-12T00:43:55;101699.69;;;1.98;82.76
15646;BME280;7922;43.622;1.476;2023-02-12T00:46:21;101577.03;;;1.19;82.44
15646;BME280;7922;43.622;1.476;2023-02-12T00:48:46;101745.44;;;2.19;83.17
15646;BME280;7922;43.622;1.476;2023-02-12T00:51:11;101699.56;;;1.90;83.14
15646;BME280;7922;43.622;1.476;2023-02-12T00:53:37;101739.91;;;2.05;82.81
15646;BME280;7922;43.622;1.476;2023-02-12T00:56:03;101711.66;;;1.87;82.74
15646;BME280;7922;43.622;1.476;2023-02-12T00:58:28;101673.47;;;1.51;83.31
15646;BME280;7922;43.622;1.476;2023-02-12T01:00:53;101698.88;;;1.58;83.45
15646;BME280;7922;43.622;1.476;2023-02-12T01:03:19;101704.00;;;1.55;83.60
15646;BME280;7922;43.622;1.476;2023-02-12T01:05:45;101551.63;;;0.70;83.35
15646;BME280;7922;43.622;1.476;2023-02-12T01:08:14;101713.81;;;1.64;82.99
15646;BME280;7922;43.622;1.476;2023-02-12T01:10:41;101590.31;;;0.89;82.46
15646;BME280;7922;43.622;1.476;2023-02-12T01:13:10;101658.19;;;1.29;82.84
15646;BME280;7922;43.622;1.476;2023-02-12T01:15:36;101694.44;;;1.56;82.46
15646;BME280;7922;43.622;1.476;2023-02-12T01:18:01;101678.53;;;1.45;82.32
15646;BME280;7922;43.622;1.476;2023-02-12T01:20:26;101693.72;;;1.63;82.69
15646;BME280;7922;43.622;1.476;2023-02-12T01:22:51;101688.41;;;1.58;81.87
15646;BME280;7922;43.622;1.476;2023-02-12T01:25:17;101492.09;;;0.52;81.76
15646;BME280;7922;43.622;1.476;2023-02-12T01:27:42;101704.41;;;1.74;81.59
15646;BME280;7922;43.622;1.476;2023-02-12T01:30:10;101671.22;;;1.68;81.48
15646;BME280;7922;43.622;1.476;2023-02-12T01:32:36;101678.19;;;1.67;81.49
15646;BME280;7922;43.622;1.476;2023-02-12T01:35:01;101683.34;;;1.64;80.98
15646;BME280;7922;43.622;1.476;2023-02-12T01:37:27;101673.69;;;1.60;80.60
15646;BME280;7922;43.622;1.476;2023-02-12T01:39:52;101688.66;;;1.69;80.85
15646;BME280;7922;43.622;1.476;2023-02-12T01:42:18;101663.81;;;1.49;80.58
15646;BME280;7922;43.622;1.476;2023-02-12T01:44:45;101751.91;;;1.95;80.97
15646;BME280;7922;43.622;1.476;2023-02-12T01:47:29;101689.19;;;1.54;81.30
15646;BME280;7922;43.622;1.476;2023-02-12T01:49:55;101695.28;;;1.53;81.14
15646;BME280;7922;43.622;1.476;2023-02-12T01:52:29;101589.50;;;0.92;81.27
15646;BME280;7922;43.622;1.476;2023-02-12T01:55:00;101699.50;;;1.48;81.74
15646;BME280;7922;43.622;1.476;2023-02-12T01:57:29;101746.34;;;1.80;81.90
15646;BME280;7922;43.622;1.476;2023-02-12T01:59:57;101699.47;;;1.47;81.55
15646;BME280;7922;43.622;1.476;2023-02-12T02:02:23;101678.38;;;1.37;81.61
15646;BME280;7922;43.622;1.476;2023-02-12T02:04:51;101673.28;;;1.42;81.63
15646;BME280;7922;43.622;1.476;2023-02-12T02:07:17;101742.63;;;1.70;81.95
15646;BME280;7922;43.622;1.476;2023-02-12T02:09:43;101678.31;;;1.34;81.80
15646;BME280;7922;43.622;1.476;2023-02-12T02:12:08;101559.19;;;0.59;82.24
15646;BME280;7922;43.622;1.476;2023-02-12T02:14:34;101554.69;;;0.54;82.51
15646;BME280;7922;43.622;1.476;2023-02-12T02:22:30;101707.53;;;1.19;83.32
15646;BME280;7922;43.622;1.476;2023-02-12T02:30:36;101728.66;;;1.29;84.46
15646;BME280;7922;43.622;1.476;2023-02-12T02:33:09;101730.31;;;1.25;84.32
15646;BME280;7922;43.622;1.476;2023-02-12T02:41:21;101669.44;;;0.90;84.19
15646;BME280;7922;43.622;1.476;2023-02-12T02:43:50;101714.47;;;1.17;84.81
15646;BME280;7922;43.622;1.476;2023-02-12T02:46:20;101710.81;;;1.09;84.33
15646;BME280;7922;43.622;1.476;2023-02-12T02:48:51;101709.03;;;1.08;85.50
15646;BME280;7922;43.622;1.476;2023-02-12T02:51:21;101568.81;;;0.27;84.80
15646;BME280;7922;43.622;1.476;2023-02-12T02:56:38;101630.63;;;0.66;85.70
15646;BME280;7922;43.622;1.476;2023-02-12T02:59:28;101591.69;;;0.39;85.58
15646;BME280;7922;43.622;1.476;2023-02-12T03:02:00;101643.94;;;0.78;85.70
15646;BME280;7922;43.622;1.476;2023-02-12T03:04:32;101666.72;;;0.85;85.19
15646;BME280;7922;43.622;1.476;2023-02-12T03:07:07;101608.47;;;0.48;85.22
15646;BME280;7922;43.622;1.476;2023-02-12T03:12:30;101500.19;;;0.27;84.59
15646;BME280;7922;43.622;1.476;2023-02-12T03:14:57;101647.66;;;1.24;83.51
15646;BME280;7922;43.622;1.476;2023-02-12T03:17:33;101536.78;;;0.69;83.68
15646;BME280;7922;43.622;1.476;2023-02-12T03:20:04;101670.53;;;1.37;83.34
15646;BME280;7922;43.622;1.476;2023-02-12T03:22:33;101661.75;;;1.32;83.02
15646;BME280;7922;43.622;1.476;2023-02-12T03:25:06;101651.38;;;1.35;83.28
15646;BME280;7922;43.622;1.476;2023-02-12T03:27:40;101581.59;;;0.89;83.37
15646;BME280;7922;43.622;1.476;2023-02-12T03:30:07;101678.50;;;1.42;83.77
15646;BME280;7922;43.622;1.476;2023-02-12T03:32:43;101688.00;;;1.38;83.44
15646;BME280;7922;43.622;1.476;2023-02-12T03:35:19;101637.69;;;1.08;83.68
15646;BME280;7922;43.622;1.476;2023-02-12T03:37:55;101695.13;;;1.46;84.22
15646;BME280;7922;43.622;1.476;2023-02-12T03:40:33;101497.75;;;0.33;83.99
15646;BME280;7922;43.622;1.476;2023-02-12T03:48:22;101685.63;;;1.51;84.20
15646;BME280;7922;43.622;1.476;2023-02-12T03:51:04;101522.59;;;0.55;84.22
15646;BME280;7922;43.622;1.476;2023-02-12T03:53:34;101658.31;;;1.35;83.95
15646;BME280;7922;43.622;1.476;2023-02-12T03:56:05;101684.59;;;1.42;84.63
15646;BME280;7922;43.622;1.476;2023-02-12T03:58:34;101486.38;;;0.29;84.54
15646;BME280;7922;43.622;1.476;2023-02-12T04:01:02;101535.66;;;0.56;84.41
15646;BME280;7922;43.622;1.476;2023-02-12T04:03:29;101602.56;;;0.93;84.31
15646;BME280;7922;43.622;1.476;2023-02-12T04:05:54;101677.56;;;1.40;84.06
15646;BME280;7922;43.622;1.476;2023-02-12T04:08:19;101610.53;;;1.00;84.82
15646;BME280;7922;43.622;1.476;2023-02-12T04:17:11;101477.47;;;0.21;84.22
15646;BME280;7922;43.622;1.476;2023-02-12T04:25:17;101690.34;;;1.28;85.03
15646;BME280;7922;43.622;1.476;2023-02-12T04:30:32;101550.09;;;0.43;85.38
15646;BME280;7922;43.622;1.476;2023-02-12T04:33:02;101706.72;;;1.20;85.27
15646;BME280;7922;43.622;1.476;2023-02-12T04:35:35;101717.81;;;1.12;84.98
15646;BME280;7922;43.622;1.476;2023-02-12T04:38:10;101658.81;;;0.82;85.13
15646;BME280;7922;43.622;1.476;2023-02-12T04:40:38;101673.75;;;0.88;85.25
15646;BME280;7922;43.622;1.476;2023-02-12T04:43:04;101635.94;;;0.70;85.39
15646;BME280;7922;43.622;1.476;2023-02-12T04:45:31;101578.59;;;0.36;85.33
15646;BME280;7922;43.622;1.476;2023-02-12T04:47:58;101682.81;;;1.02;85.95
15646;BME280;7922;43.622;1.476;2023-02-12T04:50:24;101668.53;;;0.88;85.39
15646;BME280;7922;43.622;1.476;2023-02-12T04:52:49;101671.97;;;0.87;85.68
15646;BME280;7922;43.622;1.476;2023-02-12T04:55:14;101675.59;;;0.92;85.98
15646;BME280;7922;43.622;1.476;2023-02-12T04:57:40;101634.88;;;0.62;85.97
15646;BME280;7922;43.622;1.476;2023-02-12T05:00:06;101681.69;;;0.92;85.74
15646;BME280;7922;43.622;1.476;2023-02-12T05:02:34;101546.75;;;0.13;85.86
15646;BME280;7922;43.622;1.476;2023-02-12T05:05:00;101704.44;;;0.98;86.15
15646;BME280;7922;43.622;1.476;2023-02-12T05:07:25;101627.75;;;0.55;86.50
15646;BME280;7922;43.622;1.476;2023-02-12T05:09:51;101630.16;;;0.47;85.98
15646;BME280;7922;43.622;1.476;2023-02-12T05:12:16;101568.28;;;0.06;85.97
15646;BME280;7922;43.622;1.476;2023-02-12T05:14:41;101628.97;;;0.35;86.18
15646;BME280;7922;43.622;1.476;2023-02-12T05:17:06;101624.25;;;0.21;86.72
15646;BME280;7922;43.622;1.476;2023-02-12T05:19:32;101658.63;;;0.40;86.75
15646;BME280;7922;43.622;1.476;2023-02-12T05:21:57;101616.41;;;0.20;86.90
15646;BME280;7922;43.622;1.476;2023-02-12T05:24:22;101659.53;;;0.40;86.83
15646;BME280;7922;43.622;1.476;2023-02-12T05:26:48;101669.81;;;0.36;86.80
15646;BME280;7922;43.622;1.476;2023-02-12T05:29:14;101717.38;;;0.60;86.88
15646;BME280;7922;43.622;1.476;2023-02-12T05:31:39;101502.22;;;-0.63;86.29
15646;BME280;7922;43.622;1.476;2023-02-12T05:34:05;101636.03;;;0.07;87.03
15646;BME280;7922;43.622;1.476;2023-02-12T05:36:31;101672.31;;;0.31;86.60
15646;BME280;7922;43.622;1.476;2023-02-12T05:38:57;101703.97;;;0.45;86.18
15646;BME280;7922;43.622;1.476;2023-02-12T05:41:23;101559.13;;;-0.45;86.68
15646;BME280;7922;43.622;1.476;2023-02-12T05:43:49;101563.16;;;-0.55;86.91
15646;BME280;7922;43.622;1.476;2023-02-12T05:46:15;101681.44;;;0.15;88.25
15646;BME280;7922;43.622;1.476;2023-02-12T05:48:41;101536.16;;;-0.60;88.33
15646;BME280;7922;43.622;1.476;2023-02-12T05:51:13;101601.56;;;-0.16;87.61
15646;BME280;7922;43.622;1.476;2023-02-12T05:53:39;101652.78;;;0.15;88.21
15646;BME280;7922;43.622;1.476;2023-02-12T05:56:16;101574.13;;;-0.36;88.88
15646;BME280;7922;43.622;1.476;2023-02-12T05:58:45;101670.06;;;0.12;88.83
15646;BME280;7922;43.622;1.476;2023-02-12T06:01:16;101720.28;;;0.38;88.50
15646;BME280;7922;43.622;1.476;2023-02-12T06:03:42;101674.31;;;0.08;87.88
15646;BME280;7922;43.622;1.476;2023-02-12T06:06:08;101570.97;;;-0.55;87.95
15646;BME280;7922;43.622;1.476;2023-02-12T06:08:34;101583.31;;;-0.47;88.04
15646;BME280;7922;43.622;1.476;2023-02-12T06:11:01;101592.25;;;-0.39;88.19
15646;BME280;7922;43.622;1.476;2023-02-12T06:13:27;101580.34;;;-0.61;88.27
15646;BME280;7922;43.622;1.476;2023-02-12T06:15:52;101717.56;;;0.35;87.83
15646;BME280;7922;43.622;1.476;2023-02-12T06:18:17;101563.03;;;-0.59;87.62
15646;BME280;7922;43.622;1.476;2023-02-12T06:20:42;101604.50;;;-0.35;87.61
15646;BME280;7922;43.622;1.476;2023-02-12T06:23:08;101571.72;;;-0.59;87.17
15646;BME280;7922;43.622;1.476;2023-02-12T06:25:33;101687.25;;;0.05;87.67
15646;BME280;7922;43.622;1.476;2023-02-12T06:27:58;101608.38;;;-0.51;87.36
15646;BME280;7922;43.622;1.476;2023-02-12T06:30:23;101666.03;;;-0.39;87.04
15646;BME280;7922;43.622;1.476;2023-02-12T06:32:49;101695.50;;;-0.40;87.31
15646;BME280;7922;43.622;1.476;2023-02-12T06:35:14;101528.56;;;-1.41;87.59
15646;BME280;7922;43.622;1.476;2023-02-12T06:37:40;101718.22;;;-0.34;88.11
15646;BME280;7922;43.622;1.476;2023-02-12T06:40:05;101731.69;;;-0.19;87.77
15646;BME280;7922;43.622;1.476;2023-02-12T06:42:31;101661.06;;;-0.60;87.96
15646;BME280;7922;43.622;1.476;2023-02-12T06:44:56;101671.56;;;-0.57;88.07
15646;BME280;7922;43.622;1.476;2023-02-12T06:47:21;101659.09;;;-0.67;87.77
15646;BME280;7922;43.622;1.476;2023-02-12T06:49:47;101443.84;;;-1.91;88.11
15646;BME280;7922;43.622;1.476;2023-02-12T06:52:12;101705.16;;;-0.36;87.55
15646;BME280;7922;43.622;1.476;2023-02-12T06:54:38;101524.09;;;-1.45;87.48
15646;BME280;7922;43.622;1.476;2023-02-12T06:57:03;101659.00;;;-0.70;87.50
15646;BME280;7922;43.622;1.476;2023-02-12T06:59:28;101663.06;;;-0.80;87.50
15646;BME280;7922;43.622;1.476;2023-02-12T07:01:53;101679.81;;;-0.70;88.24
15646;BME280;7922;43.622;1.476;2023-02-12T07:04:19;101568.56;;;-1.36;89.08
15646;BME280;7922;43.622;1.476;2023-02-12T07:06:44;101690.44;;;-0.64;88.94
15646;BME280;7922;43.622;1.476;2023-02-12T07:09:09;101739.91;;;-0.34;88.84
15646;BME280;7922;43.622;1.476;2023-02-12T07:11:36;101692.09;;;-0.66;88.64
15646;BME280;7922;43.622;1.476;2023-02-12T07:14:01;101556.63;;;-1.29;88.75
15646;BME280;7922;43.622;1.476;2023-02-12T07:16:27;101745.78;;;-0.12;88.01
15646;BME280;7922;43.622;1.476;2023-02-12T07:18:52;101603.69;;;-0.93;87.92
15646;BME280;7922;43.622;1.476;2023-02-12T07:21:18;101579.09;;;-1.04;87.53
15646;BME280;7922;43.622;1.476;2023-02-12T07:23:47;101758.44;;;0.04;87.90
15646;BME280;7922;43.622;1.476;2023-02-12T07:26:13;101760.31;;;0.10;87.78
15646;BME280;7922;43.622;1.476;2023-02-12T07:28:39;101754.13;;;0.06;86.88
15646;BME280;7922;43.622;1.476;2023-02-12T07:31:07;101745.53;;;0.09;85.97
15646;BME280;7922;43.622;1.476;2023-02-12T07:33:33;101704.28;;;-0.06;86.00
15646;BME280;7922;43.622;1.476;2023-02-12T07:36:00;101605.13;;;-0.44;85.32
15646;BME280;7922;43.622;1.476;2023-02-12T07:38:25;101733.09;;;0.30;85.25
15646;BME280;7922;43.622;1.476;2023-02-12T07:40:50;101726.25;;;0.34;85.09
15646;BME280;7922;43.622;1.476;2023-02-12T07:43:16;101715.00;;;0.36;84.39
15646;BME280;7922;43.622;1.476;2023-02-12T07:45:41;101641.44;;;0.13;83.96
15646;BME280;7922;43.622;1.476;2023-02-12T07:48:06;101592.50;;;0.02;84.05
15646;BME280;7922;43.622;1.476;2023-02-12T07:50:31;101624.50;;;0.31;84.17
15646;BME280;7922;43.622;1.476;2023-02-12T07:52:57;101639.75;;;0.48;83.54
15646;BME280;7922;43.622;1.476;2023-02-12T07:55:22;101712.81;;;0.85;83.98
15646;BME280;7922;43.622;1.476;2023-02-12T07:57:47;101726.13;;;0.95;83.71
15646;BME280;7922;43.622;1.476;2023-02-12T08:00:13;101565.28;;;0.25;83.26
15646;BME280;7922;43.622;1.476;2023-02-12T08:02:38;101696.09;;;1.13;82.89
15646;BME280;7922;43.622;1.476;2023-02-12T08:05:04;101608.41;;;0.83;82.67
15646;BME280;7922;43.622;1.476;2023-02-12T08:07:29;101769.16;;;1.87;82.48
15646;BME280;7922;43.622;1.476;2023-02-12T08:09:55;101593.16;;;1.00;82.33
15646;BME280;7922;43.622;1.476;2023-02-12T08:12:20;101746.59;;;1.92;82.34
15646;BME280;7922;43.622;1.476;2023-02-12T08:14:45;101755.78;;;2.14;83.11
15646;BME280;7922;43.622;1.476;2023-02-12T08:17:10;101604.56;;;1.44;82.02
15646;BME280;7922;43.622;1.476;2023-02-12T08:19:36;101728.25;;;2.31;82.19
15646;BME280;7922;43.622;1.476;2023-02-12T08:22:01;101682.03;;;2.29;81.93
15646;BME280;7922;43.622;1.476;2023-02-12T08:24:27;101733.31;;;2.69;81.56
15646;BME280;7922;43.622;1.476;2023-02-12T08:26:53;101675.47;;;2.54;81.37
15646;BME280;7922;43.622;1.476;2023-02-12T08:29:24;101776.22;;;3.29;81.21
15646;BME280;7922;43.622;1.476;2023-02-12T08:31:55;101735.69;;;3.07;80.77
15646;BME280;7922;43.622;1.476;2023-02-12T08:34:23;101780.06;;;3.51;80.84
15646;BME280;7922;43.622;1.476;2023-02-12T08:36:51;101790.00;;;3.73;80.57
15646;BME280;7922;43.622;1.476;2023-02-12T08:39:17;101670.53;;;3.24;80.04
15646;BME280;7922;43.622;1.476;2023-02-12T08:41:43;101674.09;;;3.30;79.17
15646;BME280;7922;43.622;1.476;2023-02-12T08:44:09;101612.78;;;3.14;78.58
15646;BME280;7922;43.622;1.476;2023-02-12T08:46:37;101743.28;;;4.07;77.72
15646;BME280;7922;43.622;1.476;2023-02-12T08:49:09;101785.75;;;4.50;77.58
15646;BME280;7922;43.622;1.476;2023-02-12T08:51:35;101752.59;;;4.56;78.08
15646;BME280;7922;43.622;1.476;2023-02-12T08:54:04;101741.25;;;4.61;78.05
15646;BME280;7922;43.622;1.476;2023-02-12T08:56:31;101683.28;;;4.39;78.03
15646;BME280;7922;43.622;1.476;2023-02-12T08:58:59;101720.38;;;4.73;77.97
15646;BME280;7922;43.622;1.476;2023-02-12T09:01:29;101741.53;;;4.88;78.16
15646;BME280;7922;43.622;1.476;2023-02-12T09:03:55;101738.16;;;5.03;78.20
15646;BME280;7922;43.622;1.476;2023-02-12T09:06:22;101737.28;;;5.04;78.83
15646;BME280;7922;43.622;1.476;2023-02-12T09:08:50;101715.50;;;5.16;78.28
15646;BME280;7922;43.622;1.476;2023-02-12T09:11:18;101642.66;;;4.90;77.58
15646;BME280;7922;43.622;1.476;2023-02-12T09:13:45;101731.53;;;5.54;77.42
15646;BME280;7922;43.622;1.476;2023-02-12T09:16:12;101734.28;;;5.72;77.10
15646;BME280;7922;43.622;1.476;2023-02-12T09:18:37;101758.09;;;5.94;77.92
15646;BME280;7922;43.622;1.476;2023-02-12T09:21:06;101656.16;;;5.47;77.78
15646;BME280;7922;43.622;1.476;2023-02-12T09:23:32;101676.44;;;5.71;77.00
15646;BME280;7922;43.622;1.476;2023-02-12T09:25:57;101743.28;;;6.14;76.35
15646;BME280;7922;43.622;1.476;2023-02-12T09:28:23;101724.00;;;6.15;76.18
15646;BME280;7922;43.622;1.476;2023-02-12T09:30:48;101739.81;;;6.31;75.70
15646;BME280;7922;43.622;1.476;2023-02-12T09:33:14;101652.03;;;6.04;75.75
15646;BME280;7922;43.622;1.476;2023-02-12T09:35:39;101616.06;;;5.95;75.32
15646;BME280;7922;43.622;1.476;2023-02-12T09:38:06;101689.88;;;6.43;74.82
15646;BME280;7922;43.622;1.476;2023-02-12T09:45:38;101679.38;;;6.69;73.80
15646;BME280;7922;43.622;1.476;2023-02-12T09:51:06;101654.78;;;6.82;72.36
15646;BME280;7922;43.622;1.476;2023-02-12T09:53:36;101710.97;;;7.32;71.75
15646;BME280;7922;43.622;1.476;2023-02-12T09:56:23;101609.13;;;6.79;70.88
15646;BME280;7922;43.622;1.476;2023-02-12T09:58:53;101730.25;;;7.54;70.28
15646;BME280;7922;43.622;1.476;2023-02-12T10:01:20;101663.56;;;7.16;69.34
15646;BME280;7922;43.622;1.476;2023-02-12T10:03:47;101605.59;;;6.99;69.33
15646;BME280;7922;43.622;1.476;2023-02-12T10:06:16;101764.47;;;7.96;68.80
15646;BME280;7922;43.622;1.476;2023-02-12T10:11:42;101756.44;;;8.26;68.36
15646;BME280;7922;43.622;1.476;2023-02-12T10:17:29;101761.66;;;8.35;67.33
15646;BME280;7922;43.622;1.476;2023-02-12T10:20:14;101724.72;;;8.27;66.70
15646;BME280;7922;43.622;1.476;2023-02-12T10:23:10;101766.81;;;8.72;65.60
15646;BME280;7922;43.622;1.476;2023-02-12T10:28:12;101735.22;;;8.46;64.41
15646;BME280;7922;43.622;1.476;2023-02-12T10:30:40;101776.47;;;8.73;63.87
15646;BME280;7922;43.622;1.476;2023-02-12T10:33:13;101729.94;;;8.50;63.97
15646;BME280;7922;43.622;1.476;2023-02-12T10:35:44;101671.06;;;8.27;63.90
15646;BME280;7922;43.622;1.476;2023-02-12T10:38:19;101622.81;;;8.02;63.18
15646;BME280;7922;43.622;1.476;2023-02-12T10:40:45;101648.19;;;8.29;63.25
15646;BME280;7922;43.622;1.476;2023-02-12T10:43:12;101708.63;;;8.76;62.52
15646;BME280;7922;43.622;1.476;2023-02-12T10:45:39;101712.19;;;8.71;62.48
15646;BME280;7922;43.622;1.476;2023-02-12T10:50:39;101756.72;;;9.21;62.22
15646;BME280;7922;43.622;1.476;2023-02-12T10:53:14;101654.94;;;8.76;61.38
15646;BME280;7922;43.622;1.476;2023-02-12T10:55:41;101715.41;;;9.09;61.88
15646;BME280;7922;43.622;1.476;2023-02-12T10:58:17;101709.22;;;9.15;61.80
15646;BME280;7922;43.622;1.476;2023-02-12T11:00:43;101630.97;;;8.92;61.18
15646;BME280;7922;43.622;1.476;2023-02-12T11:05:39;101608.84;;;9.03;60.20
15646;BME280;7922;43.622;1.476;2023-02-12T11:08:06;101615.81;;;9.13;59.42
15646;BME280;7922;43.622;1.476;2023-02-12T11:10:37;101585.28;;;8.83;59.13
15646;BME280;7922;43.622;1.476;2023-02-12T11:13:04;101575.69;;;8.71;58.67
15646;BME280;7922;43.622;1.476;2023-02-12T11:15:36;101706.91;;;9.68;58.85
15646;BME280;7922;43.622;1.476;2023-02-12T11:18:05;101669.13;;;9.55;58.81
15646;BME280;7922;43.622;1.476;2023-02-12T11:20:40;101701.44;;;9.83;58.61
15646;BME280;7922;43.622;1.476;2023-02-12T11:28:19;101678.72;;;9.67;58.48
15646;BME280;7922;43.622;1.476;2023-02-12T11:30:59;101692.47;;;9.95;58.42
15646;BME280;7922;43.622;1.476;2023-02-12T11:36:11;101650.28;;;9.82;57.56
15646;BME280;7922;43.622;1.476;2023-02-12T11:38:47;101537.38;;;9.13;56.65
15646;BME280;7922;43.622;1.476;2023-02-12T11:41:35;101700.91;;;10.27;56.32
15646;BME280;7922;43.622;1.476;2023-02-12T11:44:12;101665.00;;;10.06;56.89
15646;BME280;7922;43.622;1.476;2023-02-12T11:46:49;101657.81;;;10.15;55.88
15646;BME280;7922;43.622;1.476;2023-02-12T11:49:24;101695.56;;;10.32;55.39
15646;BME280;7922;43.622;1.476;2023-02-12T11:51:52;101569.47;;;9.57;55.63
15646;BME280;7922;43.622;1.476;2023-02-12T11:54:21;101644.75;;;10.02;56.14
15646;BME280;7922;43.622;1.476;2023-02-12T11:56:48;101678.81;;;10.31;56.01
15646;BME280;7922;43.622;1.476;2023-02-12T11:59:29;101673.31;;;10.44;55.71
15646;BME280;7922;43.622;1.476;2023-02-12T12:01:58;101671.25;;;10.63;55.98
15646;BME280;7922;43.622;1.476;2023-02-12T12:04:26;101652.75;;;10.59;54.91
15646;BME280;7922;43.622;1.476;2023-02-12T12:07:05;101631.81;;;10.44;55.18
15646;BME280;7922;43.622;1.476;2023-02-12T12:09:40;101666.75;;;10.69;55.72
15646;BME280;7922;43.622;1.476;2023-02-12T12:12:30;101528.19;;;10.07;56.30
15646;BME280;7922;43.622;1.476;2023-02-12T12:15:06;101535.97;;;10.18;55.79
15646;BME280;7922;43.622;1.476;2023-02-12T12:17:59;101655.69;;;10.97;54.29
15646;BME280;7922;43.622;1.476;2023-02-12T12:20:34;101625.84;;;10.84;53.56
15646;BME280;7922;43.622;1.476;2023-02-12T12:25:51;101537.16;;;10.52;53.98
15646;BME280;7922;43.622;1.476;2023-02-12T12:36:58;101643.75;;;11.22;52.46
15646;BME280;7922;43.622;1.476;2023-02-12T12:39:34;101530.84;;;10.61;52.63
15646;BME280;7922;43.622;1.476;2023-02-12T13:06:53;101499.47;;;10.86;51.65
15646;BME280;7922;43.622;1.476;2023-02-12T13:15:08;101545.31;;;11.36;49.52
15646;BME280;7922;43.622;1.476;2023-02-12T13:17:42;101574.19;;;11.51;49.18
15646;BME280;7922;43.622;1.476;2023-02-12T13:20:22;101604.47;;;11.83;50.11
15646;BME280;7922;43.622;1.476;2023-02-12T13:23:10;101614.38;;;11.75;49.55
15646;BME280;7922;43.622;1.476;2023-02-12T13:25:54;101438.41;;;10.91;48.82
15646;BME280;7922;43.622;1.476;2023-02-12T13:28:43;101614.03;;;11.93;48.75
15646;BME280;7922;43.622;1.476;2023-02-12T13:31:13;101587.72;;;11.79;49.00
15646;BME280;7922;43.622;1.476;2023-02-12T13:33:45;101453.88;;;11.12;48.30
15646;BME280;7922;43.622;1.476;2023-02-12T13:36:13;101581.41;;;11.87;48.08
15646;BME280;7922;43.622;1.476;2023-02-12T13:41:17;101444.94;;;11.15;49.17
15646;BME280;7922;43.622;1.476;2023-02-12T13:49:53;101554.41;;;11.66;48.24
15646;BME280;7922;43.622;1.476;2023-02-12T13:52:56;101588.50;;;11.86;48.12
15646;BME280;7922;43.622;1.476;2023-02-12T13:55:40;101520.47;;;11.40;49.34
15646;BME280;7922;43.622;1.476;2023-02-12T14:01:00;101442.34;;;11.13;49.13
15646;BME280;7922;43.622;1.476;2023-02-12T14:03:26;101564.81;;;11.75;48.56
15646;BME280;7922;43.622;1.476;2023-02-12T14:08:42;101527.06;;;11.63;48.16
15646;BME280;7922;43.622;1.476;2023-02-12T14:11:13;101563.69;;;11.87;46.91
15646;BME280;7922;43.622;1.476;2023-02-12T14:13:51;101531.34;;;11.68;46.91
15646;BME280;7922;43.622;1.476;2023-02-12T14:22:08;101478.84;;;11.42;48.55
15646;BME280;7922;43.622;1.476;2023-02-12T14:27:05;101546.78;;;11.93;46.96
15646;BME280;7922;43.622;1.476;2023-02-12T14:29:36;101564.19;;;12.04;47.91
15646;BME280;7922;43.622;1.476;2023-02-12T14:32:01;101558.03;;;12.04;48.23
15646;BME280;7922;43.622;1.476;2023-02-12T14:37:14;101443.72;;;11.31;48.42
15646;BME280;7922;43.622;1.476;2023-02-12T14:39:40;101526.78;;;11.75;47.81
15646;BME280;7922;43.622;1.476;2023-02-12T14:44:37;101568.88;;;11.95;47.29
15646;BME280;7922;43.622;1.476;2023-02-12T14:47:10;101464.75;;;11.40;47.11
15646;BME280;7922;43.622;1.476;2023-02-12T14:49:51;101527.53;;;11.80;46.80
15646;BME280;7922;43.622;1.476;2023-02-12T14:52:21;101529.50;;;11.73;47.18
15646;BME280;7922;43.622;1.476;2023-02-12T14:55:02;101516.34;;;11.67;46.80
15646;BME280;7922;43.622;1.476;2023-02-12T14:57:39;101551.91;;;12.00;46.40
15646;BME280;7922;43.622;1.476;2023-02-12T15:05:35;101542.31;;;11.93;46.94
15646;BME280;7922;43.622;1.476;2023-02-12T15:08:06;101550.34;;;11.92;46.38
15646;BME280;7922;43.622;1.476;2023-02-12T15:10:41;101531.28;;;11.73;46.01
15646;BME280;7922;43.622;1.476;2023-02-12T15:18:21;101524.13;;;11.76;48.00
15646;BME280;7922;43.622;1.476;2023-02-12T15:23:38;101522.41;;;11.74;47.53
15646;BME280;7922;43.622;1.476;2023-02-12T15:26:05;101454.16;;;11.39;47.08
15646;BME280;7922;43.622;1.476;2023-02-12T15:28:35;101510.22;;;11.64;47.15
15646;BME280;7922;43.622;1.476;2023-02-12T15:31:02;101387.91;;;10.95;47.37
15646;BME280;7922;43.622;1.476;2023-02-12T15:33:33;101441.25;;;11.23;47.30
15646;BME280;7922;43.622;1.476;2023-02-12T15:36:01;101511.22;;;11.58;47.60
15646;BME280;7922;43.622;1.476;2023-02-12T15:38:36;101447.66;;;11.13;47.36
15646;BME280;7922;43.622;1.476;2023-02-12T15:41:03;101525.28;;;11.63;47.67
15646;BME280;7922;43.622;1.476;2023-02-12T15:43:31;101322.06;;;10.35;47.59
15646;BME280;7922;43.622;1.476;2023-02-12T15:45:57;101361.53;;;10.47;47.58
15646;BME280;7922;43.622;1.476;2023-02-12T15:48:31;101447.03;;;11.00;48.85
15646;BME280;7922;43.622;1.476;2023-02-12T15:51:09;101419.16;;;10.81;49.41